Time;durP1;ratioP1;P1;durP2;ratioP2;P2;SDS_P1;SDS_P2;PMS_P1;PMS_P2;Temp;Humidity;BMP_temperature;BMP_pressure;BME280_temperature;BME280_humidity;BME280_pressure;Samples;Min_cycle;Max_cycle;Signal;HPM_P1;HPM_P2
2021/08/10 00:02:00;;;;;;;2.50;2.30;;;19.20;99.90;;;;;;5110546;27;20911;-64
2021/08/10 00:04:28;;;;;;;3.20;2.70;;;19.30;99.90;;;;;;5114975;27;20464;-64
2021/08/10 00:06:55;;;;;;;2.77;2.57;;;19.30;99.90;;;;;;5114689;27;20478;-65
2021/08/10 00:09:22;;;;;;;2.30;2.10;;;19.30;99.90;;;;;;5106937;27;20954;-64
2021/08/10 00:11:49;;;;;;;3.30;2.80;;;19.20;99.90;;;;;;5114408;27;20499;-64
2021/08/10 00:14:16;;;;;;;3.93;2.97;;;19.20;99.90;;;;;;5106389;28;20467;-64
2021/08/10 00:16:43;;;;;;;3.63;3.30;;;19.20;99.90;;;;;;5104676;27;20466;-64
2021/08/10 00:19:10;;;;;;;2.50;2.30;;;19.20;99.90;;;;;;5108173;28;20483;-66
2021/08/10 00:21:38;;;;;;;2.67;2.47;;;19.20;99.90;;;;;;5109760;28;20468;-65
2021/08/10 00:24:06;;;;;;;3.30;3.00;;;19.20;99.90;;;;;;5113770;27;20472;-64
2021/08/10 00:26:33;;;;;;;2.63;2.43;;;19.20;99.90;;;;;;5101790;27;20468;-64
2021/08/10 00:29:03;;;;;;;2.67;2.47;;;19.20;99.90;;;;;;5110925;28;20457;-64
2021/08/10 00:31:30;;;;;;;2.43;2.23;;;19.20;99.90;;;;;;5113222;27;20474;-64
2021/08/10 00:33:57;;;;;;;2.70;2.50;;;19.20;99.90;;;;;;5108927;27;20824;-65
2021/08/10 00:36:24;;;;;;;3.00;2.20;;;19.20;99.90;;;;;;5112179;27;20857;-64
2021/08/10 00:38:53;;;;;;;2.67;2.47;;;19.20;99.90;;;;;;5112520;28;20472;-64
2021/08/10 00:41:20;;;;;;;2.80;2.60;;;19.10;99.90;;;;;;5106570;28;20461;-65
2021/08/10 00:43:49;;;;;;;2.50;2.30;;;19.10;99.90;;;;;;5108031;27;20807;-64
2021/08/10 00:46:17;;;;;;;2.27;2.10;;;19.10;99.90;;;;;;5107117;28;20460;-64
2021/08/10 00:48:44;;;;;;;3.10;2.90;;;19.10;99.90;;;;;;5099034;28;20488;-65
2021/08/10 00:51:13;;;;;;;2.67;2.20;;;19.10;99.90;;;;;;5108363;28;20807;-65
2021/08/10 00:53:41;;;;;;;2.37;2.27;;;19.10;99.90;;;;;;5103409;28;20476;-64
2021/08/10 00:56:10;;;;;;;2.60;2.40;;;19.10;99.90;;;;;;5113313;28;20810;-64
2021/08/10 00:58:39;;;;;;;3.60;3.30;;;19.10;99.90;;;;;;5100627;28;20489;-65
2021/08/10 01:01:06;;;;;;;2.30;2.20;;;19.10;99.90;;;;;;5105966;28;20964;-65
2021/08/10 01:03:34;;;;;;;2.43;2.13;;;19.10;99.90;;;;;;5102749;28;20471;-65
2021/08/10 01:06:03;;;;;;;3.10;2.33;;;19.10;99.90;;;;;;5112116;28;20787;-65
2021/08/10 01:08:45;;;;;;;2.87;2.47;;;19.10;99.90;;;;;;5106988;27;20477;-64
2021/08/10 01:11:20;;;;;;;3.13;2.93;;;19.10;99.90;;;;;;5112116;28;20449;-64
2021/08/10 01:13:51;;;;;;;3.13;2.90;;;19.10;99.90;;;;;;5113728;28;20471;-64
2021/08/10 01:16:24;;;;;;;2.70;2.50;;;19.10;99.90;;;;;;5105173;28;20463;-64
2021/08/10 01:19:02;;;;;;;2.43;2.23;;;19.10;99.90;;;;;;5099912;28;20473;-64
2021/08/10 01:21:36;;;;;;;3.00;2.77;;;19.10;99.90;;;;;;5113538;28;20793;-64
2021/08/10 01:24:07;;;;;;;2.80;2.60;;;19.00;99.90;;;;;;5111036;27;20466;-64
2021/08/10 01:26:54;;;;;;;2.87;2.40;;;19.00;99.90;;;;;;5113690;27;20760;-64
2021/08/10 01:29:31;;;;;;;3.20;2.60;;;19.00;99.90;;;;;;5101583;27;20460;-64
2021/08/10 01:32:02;;;;;;;3.00;2.70;;;19.00;99.90;;;;;;5098801;28;20467;-64
2021/08/10 01:34:32;;;;;;;2.67;2.33;;;19.00;99.90;;;;;;5109879;27;20815;-64
2021/08/10 01:37:04;;;;;;;4.70;3.10;;;19.00;99.90;;;;;;5106653;28;20909;-64
2021/08/10 01:39:33;;;;;;;3.07;2.87;;;19.00;99.90;;;;;;5103478;28;20809;-64
2021/08/10 01:42:01;;;;;;;4.40;2.80;;;19.00;99.90;;;;;;5106460;28;20460;-64
2021/08/10 01:44:28;;;;;;;6.30;3.13;;;19.00;99.90;;;;;;5100556;28;20466;-64
2021/08/10 01:46:56;;;;;;;2.63;2.43;;;18.90;99.90;;;;;;5106364;27;20464;-64
2021/08/10 01:49:27;;;;;;;3.13;2.83;;;18.90;99.90;;;;;;5110004;28;20826;-64
2021/08/10 01:51:57;;;;;;;2.90;2.60;;;18.90;99.90;;;;;;5112194;28;20498;-64
2021/08/10 01:54:25;;;;;;;4.80;3.10;;;18.90;99.90;;;;;;5105714;28;20468;-64
2021/08/10 01:56:52;;;;;;;3.03;2.83;;;18.80;99.90;;;;;;5094809;28;20473;-64
2021/08/10 01:59:20;;;;;;;2.83;2.50;;;18.80;99.90;;;;;;5106125;28;20807;-64
2021/08/10 02:01:49;;;;;;;6.93;3.00;;;18.80;99.90;;;;;;5112654;27;20455;-64
2021/08/10 02:04:18;;;;;;;2.60;2.40;;;18.80;99.90;;;;;;5109385;28;20468;-64
2021/08/10 02:06:47;;;;;;;3.27;2.97;;;18.80;99.90;;;;;;5112388;28;20469;-64
2021/08/10 02:09:17;;;;;;;3.50;3.20;;;18.70;99.90;;;;;;5109118;27;20485;-65
2021/08/10 02:11:45;;;;;;;4.33;3.10;;;18.70;99.90;;;;;;5106711;27;20479;-65
2021/08/10 02:14:16;;;;;;;2.93;2.73;;;18.70;99.90;;;;;;5111478;28;20468;-64
2021/08/10 02:16:43;;;;;;;3.43;2.97;;;18.70;99.90;;;;;;5106473;28;20928;-65
2021/08/10 02:19:10;;;;;;;3.80;3.50;;;18.70;99.90;;;;;;5110412;28;20992;-64
2021/08/10 02:21:42;;;;;;;6.47;3.37;;;18.70;99.90;;;;;;5098841;28;20467;-64
2021/08/10 02:24:16;;;;;;;2.90;2.70;;;18.70;99.90;;;;;;5107399;27;20521;-64
2021/08/10 02:26:47;;;;;;;3.93;3.23;;;18.60;99.90;;;;;;5111396;27;20490;-65
2021/08/10 02:29:17;;;;;;;4.03;2.93;;;18.70;99.90;;;;;;5112433;27;20474;-64
2021/08/10 02:31:46;;;;;;;3.47;3.17;;;18.70;99.90;;;;;;5102132;28;20449;-65
2021/08/10 02:34:14;;;;;;;2.87;2.67;;;18.70;99.90;;;;;;5108370;28;20820;-65
2021/08/10 02:36:42;;;;;;;3.50;3.30;;;18.70;99.90;;;;;;5109029;28;21001;-64
2021/08/10 02:39:12;;;;;;;3.27;2.97;;;18.60;99.90;;;;;;5107585;28;20974;-64
2021/08/10 02:41:42;;;;;;;2.53;2.30;;;18.60;99.90;;;;;;5112341;28;20477;-64
2021/08/10 02:44:11;;;;;;;3.33;3.10;;;18.60;99.90;;;;;;5105191;28;20536;-65
2021/08/10 02:46:38;;;;;;;3.53;2.70;;;18.60;99.90;;;;;;5100103;28;20498;-64
2021/08/10 02:49:08;;;;;;;2.80;2.60;;;18.60;99.90;;;;;;5105660;28;20479;-64
2021/08/10 02:51:35;;;;;;;2.80;2.60;;;18.70;99.90;;;;;;5110794;28;20474;-65
2021/08/10 02:54:03;;;;;;;3.07;2.33;;;18.70;99.90;;;;;;5098798;28;20466;-64
2021/08/10 02:56:35;;;;;;;4.47;3.20;;;18.70;99.90;;;;;;5105459;28;20478;-64
2021/08/10 02:59:10;;;;;;;3.40;3.20;;;18.70;99.90;;;;;;5100986;28;20478;-65
2021/08/10 03:01:41;;;;;;;3.53;3.10;;;18.70;99.90;;;;;;5114502;27;20471;-64
2021/08/10 03:04:11;;;;;;;4.40;2.90;;;18.60;99.90;;;;;;5111302;28;20810;-64
2021/08/10 03:06:38;;;;;;;4.30;3.83;;;18.60;99.90;;;;;;5115308;27;20532;-64
2021/08/10 03:09:05;;;;;;;2.93;2.73;;;18.60;99.90;;;;;;5112722;27;20491;-64
2021/08/10 03:11:39;;;;;;;3.87;3.57;;;18.60;99.90;;;;;;5109577;27;22881;-65
2021/08/10 03:14:09;;;;;;;3.23;2.93;;;18.60;99.90;;;;;;5114949;28;21006;-65
2021/08/10 03:16:38;;;;;;;3.03;2.73;;;18.60;99.90;;;;;;5110749;27;20488;-64
2021/08/10 03:19:06;;;;;;;2.70;2.50;;;18.50;99.90;;;;;;5112510;28;20935;-64
2021/08/10 03:21:36;;;;;;;3.50;3.20;;;18.50;99.90;;;;;;5101797;28;20479;-64
2021/08/10 03:24:07;;;;;;;2.90;2.50;;;18.50;99.90;;;;;;5111207;27;20462;-65
2021/08/10 03:26:37;;;;;;;3.97;3.20;;;18.50;99.90;;;;;;5113453;27;20475;-64
2021/08/10 03:29:04;;;;;;;3.40;3.10;;;18.50;99.90;;;;;;5115515;27;20463;-64
2021/08/10 03:31:33;;;;;;;3.40;3.10;;;18.50;99.90;;;;;;5107974;27;20475;-64
2021/08/10 03:34:00;;;;;;;3.17;2.90;;;18.50;99.90;;;;;;5113104;28;20958;-64
2021/08/10 03:36:27;;;;;;;7.20;3.00;;;18.50;99.90;;;;;;5114295;27;20469;-64
2021/08/10 03:38:56;;;;;;;6.10;5.50;;;18.40;99.90;;;;;;5108986;27;20455;-64
2021/08/10 03:41:26;;;;;;;5.17;4.60;;;18.40;99.90;;;;;;5109556;28;20461;-64
2021/08/10 03:43:56;;;;;;;4.70;4.27;;;18.40;99.90;;;;;;5097414;28;20954;-64
2021/08/10 03:46:24;;;;;;;3.33;3.00;;;18.40;99.90;;;;;;5114328;27;20474;-65
2021/08/10 03:48:51;;;;;;;4.93;3.87;;;18.40;99.90;;;;;;5107172;27;20467;-64
2021/08/10 03:51:20;;;;;;;5.47;2.83;;;18.40;99.90;;;;;;5113041;27;20467;-64
2021/08/10 03:53:47;;;;;;;2.90;2.70;;;18.40;99.90;;;;;;5114870;27;20972;-64
2021/08/10 03:56:19;;;;;;;2.87;2.67;;;18.40;99.90;;;;;;5115583;27;21006;-64
2021/08/10 03:58:48;;;;;;;3.30;2.93;;;18.40;99.90;;;;;;5114204;27;20568;-64
2021/08/10 04:01:19;;;;;;;3.90;3.60;;;18.40;99.90;;;;;;5113609;27;20985;-64
2021/08/10 04:03:46;;;;;;;3.70;3.30;;;18.40;99.90;;;;;;5113204;27;20461;-64
2021/08/10 04:06:14;;;;;;;5.40;3.63;;;18.40;99.90;;;;;;5113590;27;20467;-65
2021/08/10 04:08:41;;;;;;;3.50;2.90;;;18.40;99.90;;;;;;5112281;27;20479;-64
2021/08/10 04:11:09;;;;;;;3.33;3.03;;;18.40;99.90;;;;;;5113388;27;20482;-65
2021/08/10 04:13:36;;;;;;;3.70;3.40;;;18.40;99.90;;;;;;5113727;27;20950;-65
2021/08/10 04:16:07;;;;;;;3.50;3.20;;;18.40;99.90;;;;;;5115247;27;20460;-65
2021/08/10 04:18:37;;;;;;;3.50;3.20;;;18.40;99.90;;;;;;5114504;27;20558;-65
2021/08/10 04:21:04;;;;;;;4.03;3.73;;;18.40;99.90;;;;;;5114997;27;20550;-65
2021/08/10 04:23:31;;;;;;;3.10;2.77;;;18.40;99.90;;;;;;5115032;27;20958;-65
2021/08/10 04:25:58;;;;;;;3.10;2.90;;;18.40;99.90;;;;;;5123168;27;20451;-64
2021/08/10 04:28:26;;;;;;;3.80;3.50;;;18.50;99.90;;;;;;5094274;28;20475;-65
2021/08/10 04:30:53;;;;;;;4.00;3.70;;;18.50;99.90;;;;;;5103057;27;20588;-65
2021/08/10 04:33:20;;;;;;;3.70;3.50;;;18.40;99.90;;;;;;5114170;27;20471;-64
2021/08/10 04:35:49;;;;;;;6.60;6.00;;;18.40;99.90;;;;;;5114325;27;20809;-65
2021/08/10 04:38:15;;;;;;;5.47;4.97;;;18.40;99.90;;;;;;5114707;27;20811;-65
2021/08/10 04:40:42;;;;;;;3.90;3.60;;;18.40;99.90;;;;;;5114287;27;20467;-65
2021/08/10 04:43:09;;;;;;;4.17;3.70;;;18.40;99.90;;;;;;5114498;27;20485;-65
2021/08/10 04:45:36;;;;;;;3.43;3.23;;;18.40;99.90;;;;;;5114364;27;20494;-65
2021/08/10 04:48:04;;;;;;;3.97;3.57;;;18.40;99.90;;;;;;5114196;27;20487;-64
2021/08/10 04:50:31;;;;;;;3.40;3.10;;;18.40;99.90;;;;;;5114324;27;20963;-64
2021/08/10 04:52:59;;;;;;;3.97;3.67;;;18.40;99.90;;;;;;5114055;27;20456;-63
2021/08/10 04:55:26;;;;;;;4.10;3.70;;;18.50;99.90;;;;;;5114340;27;20561;-64
2021/08/10 04:57:53;;;;;;;3.90;3.60;;;18.50;99.90;;;;;;5113732;27;20463;-64
2021/08/10 05:00:20;;;;;;;4.20;3.80;;;18.50;99.90;;;;;;5114289;27;20472;-64
2021/08/10 05:02:47;;;;;;;3.40;3.20;;;18.50;99.90;;;;;;5113714;27;20491;-64
2021/08/10 05:05:14;;;;;;;3.90;3.20;;;18.50;99.90;;;;;;5114458;27;20802;-64
2021/08/10 05:07:42;;;;;;;4.40;4.00;;;18.50;99.90;;;;;;5113605;27;20475;-64
2021/08/10 05:10:11;;;;;;;3.40;3.10;;;18.50;99.90;;;;;;5113601;27;20475;-64
2021/08/10 05:12:38;;;;;;;4.23;3.90;;;18.50;99.90;;;;;;5113788;27;20498;-64
2021/08/10 05:15:07;;;;;;;3.60;3.30;;;18.60;99.90;;;;;;5113798;27;20469;-64
2021/08/10 05:17:34;;;;;;;4.43;4.03;;;18.60;99.90;;;;;;5113785;27;20463;-64
2021/08/10 05:20:01;;;;;;;3.60;3.30;;;18.60;99.90;;;;;;5112666;27;20552;-64
2021/08/10 05:22:28;;;;;;;4.13;3.40;;;18.70;99.90;;;;;;5113679;27;20485;-64
2021/08/10 05:24:55;;;;;;;4.47;4.03;;;18.70;99.90;;;;;;5113276;27;20468;-64
2021/08/10 05:27:23;;;;;;;4.50;3.30;;;18.70;99.90;;;;;;5134165;27;20466;-64
2021/08/10 05:29:50;;;;;;;4.43;3.27;;;18.70;99.90;;;;;;5133617;27;20952;-64
2021/08/10 05:32:17;;;;;;;5.70;5.13;;;18.70;99.90;;;;;;5134196;27;20998;-64
2021/08/10 05:34:44;;;;;;;5.43;4.87;;;18.80;99.90;;;;;;5133863;27;20460;-64
2021/08/10 05:37:11;;;;;;;3.53;3.27;;;18.80;99.90;;;;;;5133814;27;20470;-64
2021/08/10 05:39:38;;;;;;;4.53;4.00;;;18.80;99.90;;;;;;5121971;27;20511;-64
2021/08/10 05:42:05;;;;;;;3.47;3.17;;;18.90;99.90;;;;;;5113204;27;20452;-64
2021/08/10 05:44:34;;;;;;;5.83;5.33;;;18.90;99.90;;;;;;5113156;27;20456;-64
2021/08/10 05:47:01;;;;;;;4.40;4.00;;;18.90;99.90;;;;;;5112976;27;20459;-64
2021/08/10 05:49:28;;;;;;;3.83;3.40;;;19.00;99.90;;;;;;5113087;27;20468;-64
2021/08/10 05:51:55;;;;;;;5.07;4.17;;;19.00;99.90;;;;;;5112890;27;20471;-64
2021/08/10 05:54:21;;;;;;;6.07;5.47;;;19.10;99.90;;;;;;5113198;27;20464;-64
2021/08/10 05:56:48;;;;;;;5.67;4.93;;;19.10;99.90;;;;;;5112924;27;20467;-64
2021/08/10 05:59:16;;;;;;;5.20;4.70;;;19.20;99.90;;;;;;5113125;27;20973;-64
2021/08/10 06:01:44;;;;;;;4.93;3.77;;;19.20;99.90;;;;;;5112787;27;20479;-65
2021/08/10 06:04:11;;;;;;;7.00;3.90;;;19.20;99.90;;;;;;5113289;27;20465;-64
2021/08/10 06:06:38;;;;;;;3.10;2.80;;;19.30;99.90;;;;;;5112960;27;20467;-65
2021/08/10 06:09:06;;;;;;;3.77;3.03;;;19.40;99.90;;;;;;5112719;27;20464;-65
2021/08/10 06:11:34;;;;;;;4.07;3.77;;;19.40;99.90;;;;;;5113008;27;20479;-65
2021/08/10 06:14:01;;;;;;;7.60;4.10;;;19.50;99.90;;;;;;5112517;27;20500;-65
2021/08/10 06:16:28;;;;;;;5.60;3.90;;;19.60;99.90;;;;;;5113225;27;20465;-65
2021/08/10 06:18:56;;;;;;;4.97;3.97;;;19.50;99.90;;;;;;5112700;27;20787;-65
2021/08/10 06:21:23;;;;;;;4.93;3.73;;;19.60;99.90;;;;;;5112984;27;20810;-65
2021/08/10 06:23:50;;;;;;;3.07;2.80;;;19.70;99.90;;;;;;5112808;27;20464;-65
2021/08/10 06:26:17;;;;;;;3.20;3.00;;;19.70;99.90;;;;;;5124081;27;20467;-65
2021/08/10 06:28:44;;;;;;;3.37;3.07;;;19.70;99.90;;;;;;5132974;27;20470;-65
2021/08/10 06:31:11;;;;;;;2.90;2.70;;;19.80;99.90;;;;;;5134446;27;20793;-65
2021/08/10 06:33:40;;;;;;;6.03;3.37;;;19.90;99.90;;;;;;5137647;27;20467;-65
2021/08/10 06:36:08;;;;;;;2.93;2.60;;;20.00;99.90;;;;;;5137309;27;20521;-65
2021/08/10 06:38:35;;;;;;;3.73;3.33;;;20.10;99.90;;;;;;5134626;27;20474;-65
2021/08/10 06:41:02;;;;;;;6.07;3.20;;;20.10;99.90;;;;;;5116677;27;20814;-65
2021/08/10 06:43:29;;;;;;;7.10;3.63;;;20.20;99.90;;;;;;5117019;27;20970;-66
2021/08/10 06:45:56;;;;;;;7.13;3.60;;;20.30;99.90;;;;;;5116435;27;20460;-63
2021/08/10 06:48:23;;;;;;;5.33;3.83;;;20.40;99.90;;;;;;5116655;27;20811;-65
2021/08/10 06:50:50;;;;;;;4.33;3.93;;;20.50;99.90;;;;;;5116152;27;20801;-65
2021/08/10 06:53:19;;;;;;;4.03;3.10;;;20.60;99.90;;;;;;5116774;27;20460;-64
2021/08/10 06:55:47;;;;;;;4.40;3.50;;;20.80;99.90;;;;;;5116035;27;20464;-65
2021/08/10 06:58:14;;;;;;;5.83;3.97;;;20.90;99.90;;;;;;5116200;27;20460;-64
2021/08/10 07:00:41;;;;;;;5.53;3.70;;;21.00;99.90;;;;;;5116517;27;20461;-64
2021/08/10 07:03:09;;;;;;;5.83;3.63;;;21.10;99.90;;;;;;5116051;27;20464;-63
2021/08/10 07:05:36;;;;;;;9.80;9.00;;;21.20;99.90;;;;;;5116323;27;20471;-64
2021/08/10 07:08:03;;;;;;;6.13;3.80;;;21.30;99.90;;;;;;5115972;27;20468;-65
2021/08/10 07:10:31;;;;;;;4.07;3.67;;;21.40;99.90;;;;;;5116330;27;20806;-64
2021/08/10 07:12:58;;;;;;;3.93;3.63;;;21.50;99.90;;;;;;5115991;27;20472;-64
2021/08/10 07:15:25;;;;;;;4.00;2.70;;;21.50;99.90;;;;;;5116153;27;20968;-64
2021/08/10 07:17:52;;;;;;;2.80;2.60;;;21.60;99.90;;;;;;5115432;27;20476;-65
2021/08/10 07:20:19;;;;;;;5.70;4.03;;;21.70;99.90;;;;;;5116433;27;20802;-65
2021/08/10 07:22:46;;;;;;;5.00;3.00;;;21.70;99.90;;;;;;5116186;27;20487;-65
2021/08/10 07:25:13;;;;;;;5.77;4.67;;;21.80;99.90;;;;;;5117852;27;21288;-64
2021/08/10 07:27:41;;;;;;;5.33;4.87;;;21.80;99.90;;;;;;5136391;27;20478;-65
2021/08/10 07:30:09;;;;;;;3.57;3.27;;;21.90;99.90;;;;;;5136049;27;20463;-65
2021/08/10 07:32:36;;;;;;;5.30;4.80;;;21.90;99.90;;;;;;5136544;27;20978;-64
2021/08/10 07:35:03;;;;;;;5.30;4.83;;;21.90;99.90;;;;;;5136192;27;20468;-65
2021/08/10 07:37:30;;;;;;;7.67;5.67;;;21.90;99.90;;;;;;5136337;27;20466;-65
2021/08/10 07:39:57;;;;;;;6.63;5.70;;;22.00;99.90;;;;;;5135936;27;20463;-64
2021/08/10 07:42:24;;;;;;;6.90;4.90;;;22.00;99.90;;;;;;5135849;27;20470;-65
2021/08/10 07:44:53;;;;;;;6.17;5.07;;;22.00;99.90;;;;;;5135422;27;20545;-65
2021/08/10 07:47:20;;;;;;;5.17;3.87;;;22.00;99.90;;;;;;5136094;27;20805;-64
2021/08/10 07:49:46;;;;;;;4.63;3.70;;;22.00;99.90;;;;;;5133069;27;20467;-65
2021/08/10 07:52:13;;;;;;;3.33;3.10;;;22.00;99.90;;;;;;5115170;27;20460;-65
2021/08/10 07:54:41;;;;;;;6.63;3.60;;;22.00;99.90;;;;;;5115589;27;20460;-65
2021/08/10 07:57:08;;;;;;;4.07;3.10;;;22.10;99.90;;;;;;5114994;27;20469;-65
2021/08/10 07:59:35;;;;;;;4.10;3.20;;;22.10;99.90;;;;;;5115440;27;20981;-64
2021/08/10 08:02:04;;;;;;;3.50;3.20;;;22.20;99.90;;;;;;5115108;27;20468;-64
2021/08/10 08:04:34;;;;;;;5.40;3.20;;;22.20;99.90;;;;;;5115254;27;20461;-65
2021/08/10 08:07:01;;;;;;;9.03;7.77;;;22.20;99.90;;;;;;5114923;27;20517;-65
2021/08/10 08:09:28;;;;;;;10.63;7.53;;;22.20;99.90;;;;;;5115249;27;20475;-65
2021/08/10 08:11:55;;;;;;;6.60;6.00;;;22.20;99.90;;;;;;5114831;27;20468;-65
2021/08/10 08:14:23;;;;;;;7.00;4.87;;;22.20;99.90;;;;;;5114892;27;20468;-65
2021/08/10 08:16:50;;;;;;;6.30;4.00;;;22.20;99.90;;;;;;5115144;27;20468;-65
2021/08/10 08:19:18;;;;;;;4.60;4.30;;;22.20;99.90;;;;;;5114797;27;20909;-65
2021/08/10 08:21:45;;;;;;;3.73;2.93;;;22.20;99.90;;;;;;5115113;27;20460;-65
2021/08/10 08:24:13;;;;;;;5.40;3.30;;;22.20;99.90;;;;;;5114504;27;20488;-64
2021/08/10 08:26:40;;;;;;;4.33;3.93;;;22.20;99.90;;;;;;5129284;27;20467;-65
2021/08/10 08:29:07;;;;;;;3.20;2.90;;;22.10;99.90;;;;;;5134863;27;20472;-65
2021/08/10 08:31:34;;;;;;;4.03;3.63;;;22.10;99.90;;;;;;5135543;27;20468;-64
2021/08/10 08:34:01;;;;;;;3.73;3.43;;;22.10;99.90;;;;;;5134708;27;20471;-65
2021/08/10 08:36:30;;;;;;;3.70;3.40;;;22.10;99.90;;;;;;5135266;27;20452;-65
2021/08/10 08:38:57;;;;;;;4.10;3.03;;;22.10;99.90;;;;;;5134796;27;20515;-64
2021/08/10 08:41:24;;;;;;;3.70;3.30;;;22.10;99.90;;;;;;5135260;27;20972;-65
2021/08/10 08:43:51;;;;;;;3.60;3.30;;;22.10;99.90;;;;;;5135029;27;20471;-65
2021/08/10 08:46:19;;;;;;;5.80;3.87;;;22.00;99.90;;;;;;5134871;27;20455;-65
2021/08/10 08:48:46;;;;;;;4.30;2.63;;;22.00;99.90;;;;;;5134947;27;20540;-65
2021/08/10 08:51:17;;;;;;;5.73;3.97;;;22.00;99.90;;;;;;5119185;27;20962;-64
2021/08/10 08:53:51;;;;;;;3.73;3.37;;;22.10;99.90;;;;;;5114313;27;20465;-65
2021/08/10 08:56:19;;;;;;;12.83;4.30;;;22.10;99.90;;;;;;5113980;27;20600;-64
2021/08/10 08:58:46;;;;;;;4.90;3.10;;;22.20;99.90;;;;;;5114188;27;20498;-64
2021/08/10 09:01:14;;;;;;;4.27;3.87;;;22.30;99.90;;;;;;5113882;27;20468;-65
2021/08/10 09:03:41;;;;;;;8.77;4.00;;;22.30;99.90;;;;;;5114314;27;20806;-65
2021/08/10 09:06:08;;;;;;;3.83;3.43;;;22.40;99.90;;;;;;5113677;27;20480;-65
2021/08/10 09:08:39;;;;;;;4.33;3.93;;;22.50;99.90;;;;;;5114181;27;20464;-65
2021/08/10 09:11:09;;;;;;;5.10;4.70;;;22.50;99.90;;;;;;5113703;27;20468;-65
2021/08/10 09:13:40;;;;;;;5.27;4.77;;;22.60;99.90;;;;;;5113856;27;20465;-65
2021/08/10 09:16:09;;;;;;;4.57;4.17;;;22.60;99.90;;;;;;5113733;27;20552;-64
2021/08/10 09:18:38;;;;;;;4.70;3.53;;;22.70;99.90;;;;;;5114131;27;20488;-65
2021/08/10 09:21:08;;;;;;;5.60;3.90;;;22.70;99.90;;;;;;5113364;27;20461;-64
2021/08/10 09:23:43;;;;;;;4.43;2.70;;;22.80;99.90;;;;;;5114002;27;20461;-65
2021/08/10 09:26:13;;;;;;;6.03;3.07;;;22.80;99.90;;;;;;5123542;27;20466;-64
2021/08/10 09:28:41;;;;;;;2.80;2.47;;;22.70;99.90;;;;;;5134220;27;21133;-64
2021/08/10 09:31:48;;;;;;;3.57;2.93;;;22.80;99.90;;;;;;5133778;27;20467;-65
2021/08/10 09:34:23;;;;;;;3.33;2.73;;;22.90;99.80;;;;;;5133612;27;20469;-64
2021/08/10 09:36:50;;;;;;;3.60;2.77;;;23.00;99.60;;;;;;5134295;27;21031;-65
2021/08/10 09:39:28;;;;;;;3.00;2.70;;;23.00;99.50;;;;;;5133616;27;20482;-64
2021/08/10 09:42:03;;;;;;;3.37;2.80;;;23.10;99.40;;;;;;5134213;27;20976;-65
2021/08/10 09:44:31;;;;;;;3.43;3.13;;;23.20;99.30;;;;;;5133648;27;20455;-65
2021/08/10 09:46:58;;;;;;;3.83;3.53;;;23.30;99.00;;;;;;5133869;27;20555;-64
2021/08/10 09:49:44;;;;;;;3.80;2.70;;;23.40;99.00;;;;;;5133470;27;20470;-63
2021/08/10 09:52:24;;;;;;;5.17;4.77;;;23.50;98.90;;;;;;5092775;28;20456;-65
2021/08/10 09:54:51;;;;;;;5.10;3.33;;;23.60;98.50;;;;;;5104935;27;20468;-64
2021/08/10 09:57:19;;;;;;;4.30;3.10;;;23.70;98.10;;;;;;5112912;27;20465;-64
2021/08/10 09:59:46;;;;;;;4.03;3.10;;;23.70;97.90;;;;;;5113220;27;20476;-65
2021/08/10 10:02:20;;;;;;;4.47;2.30;;;23.80;97.40;;;;;;5112912;27;20471;-65
2021/08/10 10:04:51;;;;;;;2.20;2.00;;;23.80;97.10;;;;;;5113351;27;20459;-64
2021/08/10 10:07:18;;;;;;;4.30;3.20;;;23.90;97.20;;;;;;5112330;27;21007;-64
2021/08/10 10:09:46;;;;;;;4.57;3.20;;;23.90;97.50;;;;;;5113254;27;20468;-65
2021/08/10 10:12:14;;;;;;;4.10;3.80;;;23.90;97.10;;;;;;5112828;27;20461;-64
2021/08/10 10:14:45;;;;;;;4.13;2.83;;;23.90;97.00;;;;;;5113160;27;20456;-64
2021/08/10 10:17:13;;;;;;;4.27;3.93;;;23.80;96.40;;;;;;5112845;27;21006;-65
2021/08/10 10:19:42;;;;;;;4.07;2.67;;;23.80;96.60;;;;;;5113147;27;20464;-65
2021/08/10 10:22:16;;;;;;;3.77;2.93;;;23.80;96.50;;;;;;5112705;27;20464;-65
2021/08/10 10:24:50;;;;;;;3.90;2.80;;;23.80;96.50;;;;;;5113133;27;20479;-65
2021/08/10 10:27:17;;;;;;;2.70;2.30;;;23.80;96.60;;;;;;5132412;27;20473;-65
2021/08/10 10:29:48;;;;;;;5.93;2.57;;;23.80;96.60;;;;;;5132430;27;20464;-65
2021/08/10 10:32:15;;;;;;;3.90;3.20;;;23.70;96.60;;;;;;5112523;27;20460;-65
2021/08/10 10:34:43;;;;;;;3.07;2.50;;;23.70;96.60;;;;;;5113007;27;20460;-63
2021/08/10 10:37:11;;;;;;;2.73;2.53;;;23.60;96.40;;;;;;5112609;27;20521;-65
2021/08/10 10:39:41;;;;;;;3.20;2.63;;;23.70;96.60;;;;;;5112747;27;20471;-64
2021/08/10 10:42:14;;;;;;;2.97;2.60;;;23.60;96.80;;;;;;5112974;27;20476;-64
2021/08/10 10:44:42;;;;;;;3.40;3.10;;;23.60;96.80;;;;;;5112732;27;21248;-65
2021/08/10 10:47:35;;;;;;;2.80;2.60;;;23.60;96.90;;;;;;5112826;27;20453;-63
2021/08/10 10:50:20;;;;;;;3.00;2.57;;;23.70;97.20;;;;;;5112163;27;20479;-63
2021/08/10 10:53:02;;;;;;;2.53;2.33;;;23.70;97.10;;;;;;5112785;27;20472;-64
2021/08/10 10:55:38;;;;;;;3.10;2.30;;;23.80;96.90;;;;;;5112594;27;21013;-65
2021/08/10 10:58:27;;;;;;;2.67;2.30;;;23.70;96.40;;;;;;5112126;27;20464;-65
2021/08/10 11:01:17;;;;;;;4.07;2.60;;;23.70;96.40;;;;;;5112667;27;20469;-65
2021/08/10 11:04:10;;;;;;;9.77;8.80;;;23.70;96.30;;;;;;5113057;27;20456;-64
2021/08/10 11:06:39;;;;;;;6.97;5.50;;;23.60;96.40;;;;;;5112518;27;20483;-64
2021/08/10 11:09:06;;;;;;;9.83;8.83;;;23.60;96.40;;;;;;5112647;27;20464;-64
2021/08/10 11:11:50;;;;;;;6.03;5.53;;;23.60;96.40;;;;;;5112302;27;20475;-64
2021/08/10 11:14:58;;;;;;;5.30;4.90;;;23.60;96.40;;;;;;5112361;27;20478;-64
2021/08/10 11:17:25;;;;;;;5.07;3.77;;;23.60;96.70;;;;;;5112538;27;20475;-64
2021/08/10 11:19:53;;;;;;;3.03;2.67;;;23.60;96.80;;;;;;5115713;27;20468;-64
2021/08/10 11:22:25;;;;;;;2.80;2.40;;;23.60;96.80;;;;;;5115600;27;20461;-65
2021/08/10 11:25:00;;;;;;;2.67;2.47;;;23.60;96.90;;;;;;5116068;27;21004;-64
2021/08/10 11:27:31;;;;;;;3.07;2.70;;;23.70;97.10;;;;;;5095455;28;20518;-64
2021/08/10 11:29:58;;;;;;;3.70;3.23;;;23.80;97.40;;;;;;5097884;28;20469;-64
2021/08/10 11:32:36;;;;;;;4.27;3.47;;;23.90;97.60;;;;;;5115585;27;20802;-64
2021/08/10 11:35:39;;;;;;;4.93;3.47;;;24.00;97.20;;;;;;5116004;27;20957;-65
2021/08/10 11:38:20;;;;;;;2.90;2.37;;;24.10;97.00;;;;;;5110594;27;20525;-64
2021/08/10 11:40:56;;;;;;;2.80;2.60;;;24.20;96.00;;;;;;5115947;27;20460;-65
2021/08/10 11:43:25;;;;;;;3.57;2.93;;;24.30;95.90;;;;;;5115588;27;20474;-65
2021/08/10 11:45:52;;;;;;;6.90;4.33;;;24.30;95.40;;;;;;5115792;27;20986;-64
2021/08/10 11:48:22;;;;;;;4.03;3.10;;;24.30;95.50;;;;;;5115066;27;20457;-65
2021/08/10 11:50:49;;;;;;;2.70;2.50;;;24.30;95.40;;;;;;5114815;27;20464;-65
2021/08/10 11:53:31;;;;;;;3.00;2.80;;;24.30;95.80;;;;;;5119094;27;20802;-65
2021/08/10 11:55:58;;;;;;;4.43;3.40;;;24.30;96.00;;;;;;5135419;27;20474;-64
2021/08/10 11:58:44;;;;;;;4.70;3.20;;;24.20;95.90;;;;;;5134815;27;20466;-64
2021/08/10 12:01:11;;;;;;;4.37;2.73;;;24.20;95.40;;;;;;5134786;27;20467;-64
2021/08/10 12:03:38;;;;;;;5.53;3.00;;;24.20;95.50;;;;;;5135322;27;20462;-64
2021/08/10 12:06:05;;;;;;;6.67;6.00;;;24.30;95.30;;;;;;5135206;27;20479;-65
2021/08/10 12:08:33;;;;;;;10.47;9.47;;;24.30;95.30;;;;;;5119864;27;20526;-64
2021/08/10 12:11:00;;;;;;;4.20;3.30;;;24.30;95.30;;;;;;5094930;28;20465;-64
2021/08/10 12:13:29;;;;;;;29.13;26.53;;;24.20;94.50;;;;;;5094256;28;20456;-64
2021/08/10 12:15:56;;;;;;;24.20;22.10;;;24.20;95.10;;;;;;5094769;28;20481;-64
2021/08/10 12:18:25;;;;;;;28.33;25.97;;;24.20;95.20;;;;;;5094236;28;20469;-64
2021/08/10 12:21:00;;;;;;;10.00;8.43;;;24.10;95.20;;;;;;5094706;28;20473;-64
2021/08/10 12:23:29;;;;;;;15.70;14.27;;;24.20;95.40;;;;;;5094120;28;20453;-64
2021/08/10 12:26:09;;;;;;;19.40;17.60;;;24.20;95.50;;;;;;5110734;27;20458;-64
2021/08/10 12:28:54;;;;;;;4.90;4.47;;;24.20;95.60;;;;;;5134997;27;21024;-64
2021/08/10 12:31:22;;;;;;;12.47;6.60;;;24.10;95.90;;;;;;5135121;27;20459;-65
2021/08/10 12:33:50;;;;;;;9.07;7.50;;;24.10;95.70;;;;;;5135349;27;20948;-65
2021/08/10 12:36:17;;;;;;;12.00;10.80;;;24.10;95.60;;;;;;5134790;27;20948;-65
2021/08/10 12:38:46;;;;;;;22.03;20.00;;;24.20;95.60;;;;;;5135450;27;20481;-63
2021/08/10 12:41:16;;;;;;;9.40;8.60;;;24.10;95.50;;;;;;5122446;27;20471;-65
2021/08/10 12:43:50;;;;;;;7.77;6.30;;;24.20;95.80;;;;;;5114518;27;20461;-64
2021/08/10 12:46:32;;;;;;;43.20;39.10;;;24.20;95.60;;;;;;5114363;27;20472;-64
2021/08/10 12:49:14;;;;;;;13.10;11.90;;;24.20;95.40;;;;;;5114302;27;20795;-64
2021/08/10 12:51:59;;;;;;;5.90;5.40;;;24.20;95.50;;;;;;5103444;27;20445;-64
2021/08/10 12:54:28;;;;;;;4.97;4.57;;;24.30;95.70;;;;;;5107255;27;20468;-64
2021/08/10 12:56:57;;;;;;;5.30;4.80;;;24.40;95.90;;;;;;5114399;28;20461;-65
2021/08/10 12:59:47;;;;;;;4.03;3.63;;;24.40;95.20;;;;;;5112758;28;20521;-65